Terminal Aerodrome Forecast
Issued by NWS Cleveland, OH

Home | Current Version | Previous Version | Graphics & Text | Print | Product List | Glossary On
Versions: 1 2 3 4 5 6 7 8 9 10 11 12 13 14 15 16 17 18 19 20 21 22 23 24
057
FTUS41 KCLE 161437 AAB
TAFCLE
TAF AMD
KCLE 161437Z 1615/1718 27015G25KT P6SM BKN015
     FM161600 26018G28KT P6SM OVC025
     FM170000 28016G26KT P6SM VCSH OVC015
     FM170700 27012G20KT 3SM -SHSN OVC015
     FM171500 27015G23KT P6SM OVC025=

USA.gov is the U.S. government's official web portal to all federal, state and local government web resources and services.